Time;durP1;ratioP1;P1;durP2;ratioP2;P2;SDS_P1;SDS_P2;PMS_P1;PMS_P2;Temp;Humidity;BMP_temperature;BMP_pressure;BME280_temperature;BME280_humidity;BME280_pressure;Samples;Min_cycle;Max_cycle;Signal;HPM_P1;HPM_P2
2021/06/14 00:00:19;;;;;;;5.47;1.50;;;;;;;13.28;74.54;100001.53;2009487;81;20171;-82
2021/06/14 00:03:22;;;;;;;1.80;1.51;;;;;;;13.29;74.40;100009.38;2005265;81;20178;-83
2021/06/14 00:06:24;;;;;;;4.56;1.76;;;;;;;13.20;74.12;99998.97;2006792;81;20221;-83
2021/06/14 00:09:32;;;;;;;3.69;1.94;;;;;;;13.22;73.67;99993.75;2004884;81;20196;-83
2021/06/14 00:12:43;;;;;;;3.92;1.88;;;;;;;13.13;73.40;99993.78;2012333;71;20174;-83
2021/06/14 00:15:47;;;;;;;3.55;1.69;;;;;;;13.08;73.64;99996.38;2015294;78;178453;-84
2021/06/14 00:18:50;;;;;;;3.33;1.52;;;;;;;13.01;73.82;99999.91;2013006;81;20237;-83
2021/06/14 00:21:54;;;;;;;3.47;1.77;;;;;;;12.88;74.27;99993.88;2012683;81;20178;-84
2021/06/14 00:24:59;;;;;;;2.36;1.48;;;;;;;12.85;74.59;99983.47;2016521;81;20221;-84
2021/06/14 00:28:02;;;;;;;3.31;1.38;;;;;;;12.82;74.96;99987.81;2010895;81;20194;-85
2021/06/14 00:31:08;;;;;;;1.59;1.30;;;;;;;12.79;75.11;99998.28;2000590;81;976111;-84
2021/06/14 00:34:11;;;;;;;3.45;1.55;;;;;;;12.65;75.11;99993.97;2013468;81;20182;-83
2021/06/14 00:37:14;;;;;;;2.28;1.36;;;;;;;12.45;75.35;99990.56;2014956;81;20225;-83
2021/06/14 00:40:18;;;;;;;6.44;1.95;;;;;;;12.48;75.61;99990.53;2011626;81;20166;-83
2021/06/14 00:43:21;;;;;;;4.31;1.56;;;;;;;12.51;75.88;99985.31;2013053;81;20139;-85
2021/06/14 00:46:24;;;;;;;5.16;2.40;;;;;;;12.46;75.81;99983.59;2016380;81;20199;-85
2021/06/14 00:49:27;;;;;;;2.03;1.35;;;;;;;12.38;75.68;99973.19;2011588;81;20341;-86
2021/06/14 00:52:30;;;;;;;3.38;2.51;;;;;;;12.32;75.94;99968.00;2012472;81;20203;-86
2021/06/14 00:55:33;;;;;;;4.40;1.41;;;;;;;12.27;76.14;99961.94;2013852;81;20612;-84
2021/06/14 00:58:39;;;;;;;3.61;1.40;;;;;;;12.23;76.21;99965.44;2010614;81;20174;-83
2021/06/14 01:01:42;;;;;;;2.46;1.29;;;;;;;12.18;76.09;99964.56;2010077;81;20188;-83
2021/06/14 01:04:45;;;;;;;4.64;1.90;;;;;;;12.12;76.16;99964.56;2014301;81;20171;-83
2021/06/14 01:07:48;;;;;;;3.15;1.52;;;;;;;12.18;76.40;99954.13;2008517;81;20224;-84
2021/06/14 01:10:53;;;;;;;2.45;1.61;;;;;;;12.21;76.50;99954.13;2012390;80;20174;-85
2021/06/14 01:14:03;;;;;;;5.65;1.44;;;;;;;12.17;76.42;99953.28;2011245;81;20496;-83
2021/06/14 01:17:13;;;;;;;2.19;1.60;;;;;;;11.97;76.28;99961.09;2006506;78;180185;-83
2021/06/14 01:20:42;;;;;;;2.30;1.74;;;;;;;11.98;76.91;99955.03;2010258;81;20200;-84
2021/06/14 01:24:05;;;;;;;3.85;1.52;;;;;;;11.97;77.28;99947.22;2014365;81;20796;-85
2021/06/14 01:27:07;;;;;;;2.97;1.58;;;;;;;11.96;77.43;99942.91;2009272;81;20244;-84
2021/06/14 01:30:17;;;;;;;3.41;1.38;;;;;;;11.90;77.89;99938.56;2009858;81;20189;-84
2021/06/14 01:33:24;;;;;;;1.94;1.64;;;;;;;11.85;77.86;99936.81;2010388;81;20166;-83
2021/06/14 01:36:31;;;;;;;4.24;1.67;;;;;;;11.74;78.30;99945.50;2015706;81;20203;-85
2021/06/14 01:39:37;;;;;;;2.36;1.74;;;;;;;11.67;78.28;99943.75;2011006;81;20631;-84
2021/06/14 01:42:43;;;;;;;3.22;1.52;;;;;;;11.67;78.39;99937.66;2011893;81;20236;-83
2021/06/14 01:45:54;;;;;;;5.95;1.91;;;;;;;11.67;78.67;99933.38;2009298;81;20251;-83
2021/06/14 01:48:59;;;;;;;2.97;2.20;;;;;;;11.69;78.54;99936.81;2010259;81;20579;-83
2021/06/14 01:52:02;;;;;;;4.55;2.41;;;;;;;11.62;78.23;99939.41;2008463;81;20270;-83
2021/06/14 01:55:07;;;;;;;5.00;2.22;;;;;;;11.56;78.38;99944.63;2012984;81;20166;-84
2021/06/14 01:58:11;;;;;;;3.39;1.64;;;;;;;11.43;78.87;99935.94;2011808;81;20178;-83
2021/06/14 02:01:14;;;;;;;2.21;1.74;;;;;;;11.39;79.26;99937.66;2010310;78;205418;-84
2021/06/14 02:04:17;;;;;;;2.99;1.70;;;;;;;11.37;79.53;99929.00;2012165;81;20208;-84
2021/06/14 02:07:20;;;;;;;3.86;1.69;;;;;;;11.40;79.50;99922.94;2009305;81;20193;-83
2021/06/14 02:10:24;;;;;;;4.20;1.96;;;;;;;11.37;79.38;99928.13;2013865;81;20170;-83
2021/06/14 02:13:29;;;;;;;2.29;1.84;;;;;;;11.31;79.47;99928.09;2016013;80;20628;-84
2021/06/14 02:16:32;;;;;;;4.72;1.76;;;;;;;11.29;79.81;99925.50;2012778;81;20159;-83
2021/06/14 02:19:44;;;;;;;3.03;1.50;;;;;;;11.33;79.98;99929.00;2013099;81;20561;-83
2021/06/14 02:22:47;;;;;;;3.76;1.71;;;;;;;11.30;79.73;99929.84;2012865;81;20719;-83
2021/06/14 02:25:50;;;;;;;4.35;1.63;;;;;;;11.13;80.14;99931.53;2011267;81;20174;-83
2021/06/14 02:28:53;;;;;;;1.94;1.75;;;;;;;11.17;80.32;99933.31;2012249;81;20170;-83
2021/06/14 02:31:56;;;;;;;2.13;1.84;;;;;;;11.21;80.06;99922.06;2010179;81;20225;-84
2021/06/14 02:34:59;;;;;;;3.78;1.84;;;;;;;11.21;79.75;99919.44;2012313;81;20200;-82
2021/06/14 02:38:06;;;;;;;4.25;1.89;;;;;;;11.15;79.76;99917.72;2012423;81;20244;-83
2021/06/14 02:41:09;;;;;;;2.95;2.16;;;;;;;11.14;79.75;99913.38;2015696;81;20743;-83
2021/06/14 02:44:14;;;;;;;2.79;1.96;;;;;;;11.17;80.09;99915.13;2015937;81;20208;-83
2021/06/14 02:47:17;;;;;;;5.22;2.26;;;;;;;11.16;80.04;99911.66;2011754;78;262062;-83
2021/06/14 02:50:21;;;;;;;3.39;2.45;;;;;;;11.12;80.07;99909.88;2010965;81;20264;-85
2021/06/14 02:53:27;;;;;;;9.31;3.35;;;;;;;11.13;79.92;99906.47;2011492;81;20194;-84
2021/06/14 02:56:32;;;;;;;4.97;2.92;;;;;;;11.13;80.14;99913.34;2012975;81;20251;-85
2021/06/14 02:59:36;;;;;;;6.01;2.97;;;;;;;11.09;80.01;99911.63;2011382;81;20182;-84
2021/06/14 03:02:40;;;;;;;8.05;2.88;;;;;;;11.01;79.98;99902.97;2009655;78;166625;-83
2021/06/14 03:05:44;;;;;;;5.40;2.54;;;;;;;10.97;79.96;99902.09;2008646;81;20179;-83
2021/06/14 03:08:48;;;;;;;6.49;2.67;;;;;;;10.99;80.00;99908.16;2011490;80;20216;-84
2021/06/14 03:11:52;;;;;;;4.51;2.65;;;;;;;10.99;79.98;99907.28;2008988;81;20211;-84
2021/06/14 03:14:56;;;;;;;3.30;2.49;;;;;;;10.94;79.76;99902.06;2008071;81;20218;-83
2021/06/14 03:17:59;;;;;;;4.00;2.75;;;;;;;10.88;79.70;99902.06;2010393;78;184328;-83
2021/06/14 03:21:03;;;;;;;3.72;2.41;;;;;;;10.82;79.71;99905.50;2010400;81;20831;-83
2021/06/14 03:24:07;;;;;;;5.16;2.60;;;;;;;10.80;79.75;99906.38;2012753;81;20190;-83
2021/06/14 03:27:14;;;;;;;6.15;2.79;;;;;;;10.78;80.02;99908.09;2013998;81;20178;-82
2021/06/14 03:30:20;;;;;;;10.36;3.67;;;;;;;10.73;80.31;99904.59;2009858;81;20760;-83
2021/06/14 03:33:23;;;;;;;9.15;3.22;;;;;;;10.71;80.37;99911.53;2011667;81;20200;-83
2021/06/14 03:36:31;;;;;;;9.66;2.59;;;;;;;10.71;80.59;99914.13;2011312;81;20199;-84
2021/06/14 03:39:34;;;;;;;7.36;2.58;;;;;;;10.70;80.80;99915.84;2010031;81;20175;-84
2021/06/14 03:42:38;;;;;;;5.21;2.20;;;;;;;10.70;80.77;99920.19;2010699;81;20175;-82
2021/06/14 03:45:40;;;;;;;3.29;2.21;;;;;;;10.68;80.69;99920.19;2011002;78;26755;-83
2021/06/14 03:48:45;;;;;;;3.72;1.83;;;;;;;10.66;80.89;99915.84;2011259;81;20200;-83
2021/06/14 03:51:48;;;;;;;3.51;2.00;;;;;;;10.65;80.85;99916.72;2011556;81;20275;-85
2021/06/14 03:54:51;;;;;;;4.39;2.01;;;;;;;10.61;80.79;99908.03;2011982;81;20243;-84
2021/06/14 03:57:53;;;;;;;3.99;1.60;;;;;;;10.61;80.58;99904.59;2011718;81;20170;-84
2021/06/14 04:00:57;;;;;;;4.55;1.65;;;;;;;10.55;80.59;99902.81;2007584;81;20667;-84
2021/06/14 04:07:04;;;;;;;1.85;1.64;;;;;;;10.58;80.76;99905.41;2010968;81;20711;-82
2021/06/14 04:10:07;;;;;;;1.80;1.34;;;;;;;10.63;80.77;99902.84;2008192;81;20186;-83
2021/06/14 04:13:10;;;;;;;5.74;1.59;;;;;;;10.70;80.68;99897.66;2012116;81;20182;-84
2021/06/14 04:16:13;;;;;;;2.25;1.83;;;;;;;10.73;80.50;99896.81;2008828;78;20412;-83
2021/06/14 04:19:15;;;;;;;2.91;1.80;;;;;;;10.61;81.08;99892.47;2011877;81;20205;-83
2021/06/14 04:22:18;;;;;;;5.72;1.74;;;;;;;10.67;81.74;99889.00;2011719;81;20171;-84
2021/06/14 04:25:21;;;;;;;2.13;1.65;;;;;;;10.79;81.91;99887.31;2015112;81;20814;-85
2021/06/14 04:28:23;;;;;;;2.83;1.88;;;;;;;10.93;81.84;99892.53;2012839;81;20162;-85
2021/06/14 04:31:26;;;;;;;2.49;1.89;;;;;;;11.03;81.32;99893.44;2010150;79;25625;-84
2021/06/14 04:34:29;;;;;;;3.35;1.69;;;;;;;11.18;81.14;99896.06;2006884;81;20229;-85
2021/06/14 04:37:33;;;;;;;3.95;1.89;;;;;;;11.32;81.17;99896.06;2006020;81;20679;-85
2021/06/14 04:40:36;;;;;;;2.25;1.58;;;;;;;11.48;80.79;99890.00;2007007;81;20265;-86
2021/06/14 04:43:38;;;;;;;3.36;2.19;;;;;;;11.61;80.41;99889.13;2016443;81;20171;-85
2021/06/14 04:46:41;;;;;;;6.18;2.03;;;;;;;11.79;79.83;99888.28;2010124;81;20191;-86
2021/06/14 04:49:44;;;;;;;2.81;1.58;;;;;;;11.94;79.17;99887.38;2007059;81;20347;-83
2021/06/14 04:52:46;;;;;;;5.45;1.60;;;;;;;12.06;79.20;99888.25;2005967;81;20224;-83
2021/06/14 04:55:49;;;;;;;4.22;1.70;;;;;;;12.27;78.70;99882.09;2006281;81;20182;-83
2021/06/14 04:58:51;;;;;;;3.45;1.71;;;;;;;12.52;78.45;99887.19;2005738;81;20183;-84
2021/06/14 05:01:54;;;;;;;6.41;1.74;;;;;;;12.66;77.44;99883.66;2012977;78;22055;-84
2021/06/14 05:04:57;;;;;;;6.79;1.63;;;;;;;12.84;77.25;99882.69;2016790;81;20300;-84
2021/06/14 05:08:00;;;;;;;7.76;2.30;;;;;;;13.07;76.69;99877.34;2012724;81;20178;-84
2021/06/14 05:11:04;;;;;;;2.01;1.24;;;;;;;13.41;75.72;99874.50;2011271;81;20190;-84
2021/06/14 05:14:07;;;;;;;4.79;1.35;;;;;;;13.83;74.46;99881.13;2012067;81;20182;-85
2021/06/14 05:17:10;;;;;;;3.17;1.60;;;;;;;14.35;73.02;99880.53;2015931;78;22790;-85
2021/06/14 05:20:14;;;;;;;4.86;1.59;;;;;;;14.75;71.72;99878.31;2015887;81;20679;-83
2021/06/14 05:23:16;;;;;;;3.67;1.27;;;;;;;15.04;70.69;99873.53;2011727;81;20248;-84
2021/06/14 05:26:19;;;;;;;5.59;1.33;;;;;;;15.40;69.57;99879.09;2010411;81;20205;-85
2021/06/14 05:29:22;;;;;;;6.20;2.09;;;;;;;15.86;67.74;99871.34;2011119;81;20178;-83
2021/06/14 05:32:24;;;;;;;9.63;1.81;;;;;;;16.30;66.34;99870.47;2017525;78;22837;-86
2021/06/14 05:35:27;;;;;;;6.32;1.81;;;;;;;16.84;64.72;99872.00;2013359;81;20198;-87
2021/06/14 05:38:30;;;;;;;2.63;1.30;;;;;;;17.38;63.44;99866.38;2021206;81;20185;-86
2021/06/14 05:41:33;;;;;;;3.78;1.26;;;;;;;17.99;60.34;99856.97;2003866;81;20158;-81
2021/06/14 05:44:35;;;;;;;4.71;1.60;;;;;;;18.29;58.69;99860.50;2005379;81;20417;-80
2021/06/14 05:47:38;;;;;;;5.84;1.75;;;;;;;18.63;57.24;99852.53;2004669;78;25104;-80
2021/06/14 05:50:41;;;;;;;5.93;1.71;;;;;;;18.98;55.29;99854.94;2004323;81;20295;-76
2021/06/14 05:53:50;;;;;;;4.16;1.55;;;;;;;19.40;54.82;99851.00;2004105;81;20170;-83
2021/06/14 05:56:53;;;;;;;5.19;1.40;;;;;;;19.81;53.54;99853.13;2004264;81;20261;-82
2021/06/14 05:59:55;;;;;;;4.76;1.55;;;;;;;20.12;52.29;99839.72;2004396;81;20170;-81
2021/06/14 06:02:58;;;;;;;4.10;1.36;;;;;;;20.56;50.84;99854.84;2002698;78;25621;-81
2021/06/14 06:06:01;;;;;;;8.76;1.09;;;;;;;20.90;49.37;99849.13;2004827;81;20182;-82
2021/06/14 06:09:04;;;;;;;9.20;1.42;;;;;;;21.17;47.23;99852.44;2003877;81;20170;-81
2021/06/14 06:12:10;;;;;;;5.64;1.54;;;;;;;21.70;46.63;99850.25;2005745;81;20171;-83
2021/06/14 06:15:27;;;;;;;2.65;1.36;;;;;;;;;;2010287;81;20174;-84
2021/06/14 06:25:28;;;;;;;2.90;1.58;;;;;;;23.35;41.79;99843.56;2034797;70;20225;-84
2021/06/14 06:28:32;;;;;;;3.20;1.00;;;;;;;23.70;41.26;99854.22;2009308;81;20163;-79
2021/06/14 06:31:34;;;;;;;4.30;1.41;;;;;;;23.92;40.26;99844.22;1998490;81;21656;-82
2021/06/14 06:34:38;;;;;;;6.76;1.90;;;;;;;24.13;39.31;99850.19;2007345;81;20167;-83
2021/06/14 06:37:40;;;;;;;4.97;1.56;;;;;;;24.27;38.97;99845.03;2007367;81;20221;-82
2021/06/14 06:40:43;;;;;;;9.26;1.80;;;;;;;24.38;38.87;99847.09;2010144;81;20256;-83
2021/06/14 06:43:46;;;;;;;9.70;2.11;;;;;;;24.38;38.49;99852.41;2009656;81;20174;-81
2021/06/14 06:46:50;;;;;;;5.26;1.76;;;;;;;24.42;38.52;99854.00;2006956;78;20524;-83
2021/06/14 06:49:52;;;;;;;7.75;1.90;;;;;;;24.54;38.54;99842.69;2010323;81;20184;-81
2021/06/14 06:52:55;;;;;;;4.81;2.05;;;;;;;24.68;37.87;99844.59;2008950;81;20187;-82
2021/06/14 06:56:02;;;;;;;4.04;1.77;;;;;;;24.76;38.01;99845.00;2008069;81;20175;-83
2021/06/14 06:59:05;;;;;;;6.61;1.84;;;;;;;24.82;36.82;99849.16;2009739;81;20192;-82
2021/06/14 07:02:08;;;;;;;5.82;2.03;;;;;;;25.05;36.79;99847.88;2014181;78;20890;-85
2021/06/14 07:05:12;;;;;;;3.96;1.54;;;;;;;25.18;35.93;99852.41;2012295;81;20190;-81
2021/06/14 07:08:16;;;;;;;6.68;1.60;;;;;;;25.31;36.05;99857.88;2007302;81;20178;-82
2021/06/14 07:11:23;;;;;;;8.97;2.30;;;;;;;25.50;36.23;99845.25;2009166;81;20239;-80
2021/06/14 07:14:26;;;;;;;4.69;1.24;;;;;;;25.59;35.21;99846.50;2004183;81;20171;-80
2021/06/14 07:17:29;;;;;;;3.83;1.29;;;;;;;25.73;34.96;99837.75;2001804;78;20175;-80
2021/06/14 07:20:31;;;;;;;5.94;1.64;;;;;;;25.74;35.19;99837.66;2002604;81;20182;-79
2021/06/14 07:23:34;;;;;;;4.65;1.15;;;;;;;25.81;34.91;99846.09;2004047;81;20192;-81
2021/06/14 07:26:37;;;;;;;6.04;1.06;;;;;;;25.73;35.60;99843.91;1999760;81;20185;-81
2021/06/14 07:29:40;;;;;;;3.89;1.06;;;;;;;25.64;35.37;99839.09;2002366;81;20183;-81
2021/06/14 07:32:43;;;;;;;7.11;1.33;;;;;;;25.61;35.06;99833.97;2000197;78;20577;-76
2021/06/14 07:35:46;;;;;;;2.97;1.35;;;;;;;25.73;34.87;99835.09;2002850;81;20222;-83
2021/06/14 07:38:48;;;;;;;5.70;1.44;;;;;;;25.87;34.83;99825.31;2001811;81;20356;-82
2021/06/14 07:41:52;;;;;;;7.26;1.30;;;;;;;26.02;34.85;99818.19;2000804;81;20196;-82
2021/06/14 07:44:54;;;;;;;3.09;1.20;;;;;;;26.10;34.14;99823.06;1999752;81;20545;-83
2021/06/14 07:47:57;;;;;;;3.40;1.09;;;;;;;26.18;34.39;99810.13;1998045;79;57934;-83
2021/06/14 07:51:00;;;;;;;2.83;1.17;;;;;;;26.31;34.04;99819.06;1998662;81;20284;-82
2021/06/14 07:54:03;;;;;;;3.94;1.30;;;;;;;26.33;33.98;99818.97;1997905;81;20318;-80
2021/06/14 07:57:07;;;;;;;2.14;1.00;;;;;;;26.31;33.47;99815.53;1999483;81;20188;-82
2021/06/14 08:00:12;;;;;;;3.70;0.84;;;;;;;26.45;34.36;99807.59;2000747;81;20260;-84
2021/06/14 08:03:14;;;;;;;7.55;1.04;;;;;;;26.49;33.93;99809.09;1997543;81;27572;-84
2021/06/14 08:06:17;;;;;;;3.10;1.09;;;;;;;26.49;33.42;99804.63;1997285;81;20641;-83
2021/06/14 08:09:27;;;;;;;3.65;0.80;;;;;;;26.59;33.88;99810.25;1998385;81;20204;-82
2021/06/14 08:12:35;;;;;;;2.36;0.95;;;;;;;26.80;33.46;99816.00;1997567;81;20250;-85
2021/06/14 08:15:39;;;;;;;3.17;0.80;;;;;;;26.82;32.61;99808.75;1997201;78;25870;-85
2021/06/14 08:19:01;;;;;;;1.40;0.81;;;;;;;26.91;32.16;99809.94;1993618;81;20167;-85
2021/06/14 08:25:11;;;;;;;3.20;0.80;;;;;;;26.94;31.74;99804.44;1998311;81;20194;-85
2021/06/14 08:28:13;;;;;;;2.05;0.90;;;;;;;27.08;32.13;99813.25;1997290;81;20861;-84
2021/06/14 08:31:17;;;;;;;2.49;0.70;;;;;;;27.27;31.64;99814.69;1996701;78;50402;-85
2021/06/14 08:34:20;;;;;;;2.47;0.94;;;;;;;27.29;31.34;99816.34;1996875;81;20296;-85
2021/06/14 08:37:23;;;;;;;4.16;0.90;;;;;;;27.33;31.21;99807.16;2000362;80;20259;-84
2021/06/14 08:40:29;;;;;;;2.65;0.84;;;;;;;27.36;30.70;99814.09;1997908;81;20260;-85
2021/06/14 08:43:33;;;;;;;3.24;0.90;;;;;;;27.45;31.40;99808.13;1997818;81;20669;-82
2021/06/14 08:46:36;;;;;;;4.44;0.85;;;;;;;27.48;31.29;99813.28;1997198;81;20996;-84
2021/06/14 08:49:41;;;;;;;4.95;0.76;;;;;;;27.59;30.70;99808.06;1997119;81;20766;-85
2021/06/14 08:52:44;;;;;;;3.70;0.95;;;;;;;27.58;31.20;99821.50;1995872;81;20730;-82
2021/06/14 08:55:49;;;;;;;1.65;0.70;;;;;;;27.71;30.58;99817.09;1996567;81;20174;-81
2021/06/14 08:58:53;;;;;;;4.06;0.90;;;;;;;27.71;30.48;99814.41;1996762;81;20186;-81
2021/06/14 09:01:56;;;;;;;3.47;0.84;;;;;;;27.77;30.02;99813.13;1996232;78;22900;-84
2021/06/14 09:04:59;;;;;;;1.90;0.74;;;;;;;27.78;28.93;99809.50;2000100;81;20284;-84
2021/06/14 09:08:05;;;;;;;4.88;0.85;;;;;;;27.74;29.69;99805.34;1997458;81;20251;-81
2021/06/14 09:11:10;;;;;;;0.96;0.73;;;;;;;27.85;30.53;99798.31;1997494;81;20210;-81
2021/06/14 09:14:20;;;;;;;2.20;0.88;;;;;;;28.11;30.11;99799.16;1996538;81;20186;-82
2021/06/14 09:17:23;;;;;;;1.41;0.79;;;;;;;28.26;29.64;99803.44;1995541;79;22887;-83
2021/06/14 09:20:26;;;;;;;4.45;1.00;;;;;;;28.25;29.51;99785.72;1996462;81;20924;-80
2021/06/14 09:24:05;;;;;;;2.35;0.70;;;;;;;28.39;29.59;99782.06;1996246;81;20175;-80
2021/06/14 09:27:08;;;;;;;2.79;0.88;;;;;;;28.52;28.49;99774.84;1993934;81;20569;-82
2021/06/14 09:30:25;;;;;;;3.33;0.90;;;;;;;28.55;29.54;99777.34;1996322;79;38303;-80
2021/06/14 09:33:28;;;;;;;3.80;0.90;;;;;;;28.64;28.37;99775.78;1996321;81;20200;-79
2021/06/14 09:36:31;;;;;;;1.61;0.64;;;;;;;28.68;27.72;99776.41;1996074;81;20822;-82
2021/06/14 09:39:44;;;;;;;3.31;0.86;;;;;;;28.70;27.90;99774.47;1996342;81;20637;-80
2021/06/14 09:42:48;;;;;;;1.50;0.80;;;;;;;28.72;27.24;99773.41;1996814;81;20882;-82
2021/06/14 09:45:52;;;;;;;1.06;0.70;;;;;;;28.72;27.72;99776.06;1996192;78;25703;-82
2021/06/14 09:48:58;;;;;;;1.88;0.66;;;;;;;28.82;28.90;99774.44;1997045;81;20202;-82
2021/06/14 09:52:02;;;;;;;1.49;0.65;;;;;;;28.97;27.45;99764.47;1995954;81;20195;-82
2021/06/14 09:55:15;;;;;;;2.31;0.63;;;;;;;28.99;26.32;99761.69;1996748;81;20719;-81
2021/06/14 09:58:24;;;;;;;1.06;0.71;;;;;;;29.21;26.51;99763.59;1997333;81;20208;-80
2021/06/14 10:01:32;;;;;;;2.39;1.16;;;;;;;29.31;26.45;99760.13;1995977;78;20196;-80
2021/06/14 10:04:35;;;;;;;;;;;;;;;29.28;26.02;99748.81;1997672;81;20220;-81
2021/06/14 10:07:46;;;;;;;1.61;0.70;;;;;;;29.38;26.89;99750.63;1996983;81;20152;-77
2021/06/14 10:10:48;;;;;;;1.30;0.73;;;;;;;29.46;26.46;99745.59;1997416;81;20226;-78
2021/06/14 10:13:51;;;;;;;1.45;0.68;;;;;;;29.47;25.59;99743.78;1996686;81;20175;-77
2021/06/14 10:17:03;;;;;;;1.54;0.60;;;;;;;29.68;26.06;99743.94;1995581;78;20508;-84
2021/06/14 10:20:12;;;;;;;4.97;0.70;;;;;;;29.76;23.99;99742.34;1996246;81;20327;-75
2021/06/14 10:23:19;;;;;;;2.91;0.66;;;;;;;29.90;25.13;99741.28;1994542;81;20231;-80
2021/06/14 10:26:24;;;;;;;0.90;0.50;;;;;;;30.08;24.27;99742.53;1996299;81;20962;-85
2021/06/14 10:29:26;;;;;;;2.28;0.85;;;;;;;30.20;24.12;99732.66;1997376;81;20275;-82
2021/06/14 10:32:30;;;;;;;2.69;0.63;;;;;;;30.34;24.41;99728.84;1995138;78;21489;-83
2021/06/14 10:35:34;;;;;;;4.34;0.73;;;;;;;30.35;24.44;99722.53;1997172;81;20194;-82
2021/06/14 10:38:39;;;;;;;2.08;0.77;;;;;;;30.33;24.14;99725.31;1996497;81;20194;-80
2021/06/14 10:41:44;;;;;;;1.70;0.65;;;;;;;30.42;23.77;99737.13;1997063;81;20301;-76
2021/06/14 10:44:47;;;;;;;4.88;0.68;;;;;;;30.27;23.91;99720.47;1996649;81;20627;-76
2021/06/14 10:47:50;;;;;;;1.21;0.60;;;;;;;30.38;23.93;99716.94;1995250;78;37849;-77
2021/06/14 10:50:55;;;;;;;0.73;0.50;;;;;;;30.50;23.44;99721.28;1996610;81;20244;-76
2021/06/14 10:54:11;;;;;;;1.74;0.85;;;;;;;30.60;23.06;99711.50;1996660;81;20271;-76
2021/06/14 10:57:14;;;;;;;1.61;0.69;;;;;;;30.79;22.67;99715.38;1996719;81;20206;-82
2021/06/14 11:00:33;;;;;;;3.33;0.80;;;;;;;30.90;23.59;99718.88;1996869;81;20230;-82
2021/06/14 11:03:43;;;;;;;0.71;0.60;;;;;;;30.90;23.36;99705.47;1998192;81;20170;-81
2021/06/14 11:06:50;;;;;;;2.21;0.63;;;;;;;31.01;23.89;99706.38;1996681;81;20213;-78
2021/06/14 11:09:53;;;;;;;1.60;0.68;;;;;;;30.94;23.30;99700.69;1996272;81;20193;-78
2021/06/14 11:13:07;;;;;;;2.41;0.69;;;;;;;31.12;23.53;99696.47;1996773;81;21053;-78
2021/06/14 11:16:10;;;;;;;1.48;0.65;;;;;;;30.91;22.67;99695.59;1995937;78;20179;-76
2021/06/14 11:19:13;;;;;;;1.40;0.70;;;;;;;31.03;22.74;99689.19;1995415;81;20263;-78
2021/06/14 11:22:17;;;;;;;2.81;0.66;;;;;;;31.05;23.45;99678.31;1996622;81;20226;-79
2021/06/14 11:25:30;;;;;;;1.41;0.60;;;;;;;31.06;24.12;99685.38;1995577;81;20178;-78
2021/06/14 11:28:36;;;;;;;3.56;0.61;;;;;;;31.09;22.25;99674.41;1996966;81;20220;-79
2021/06/14 11:31:39;;;;;;;3.13;1.00;;;;;;;31.17;23.62;99671.91;1996134;79;23153;-78
2021/06/14 11:34:43;;;;;;;1.15;0.80;;;;;;;31.27;22.51;99673.72;1996511;81;20577;-79
2021/06/14 11:37:47;;;;;;;1.27;0.64;;;;;;;31.29;22.76;99668.22;1995355;81;20958;-80
2021/06/14 11:40:53;;;;;;;1.48;0.57;;;;;;;31.24;22.34;99660.56;1996727;81;20170;-76
2021/06/14 11:44:31;;;;;;;0.96;0.70;;;;;;;31.08;23.12;99648.56;1996337;81;20234;-80
2021/06/14 11:47:39;;;;;;;1.00;0.55;;;;;;;31.38;23.11;99655.81;1994999;78;21019;-81
2021/06/14 11:50:43;;;;;;;2.41;0.60;;;;;;;31.36;22.62;99652.44;1996000;81;20182;-77
2021/06/14 11:53:56;;;;;;;3.60;0.76;;;;;;;31.37;23.07;99646.94;1995777;81;20283;-75
2021/06/14 11:57:00;;;;;;;1.42;0.70;;;;;;;31.60;23.40;99641.38;1996111;81;20702;-77
2021/06/14 12:00:11;;;;;;;1.48;0.73;;;;;;;31.66;22.78;99639.03;1995836;81;20175;-78
2021/06/14 12:03:24;;;;;;;2.45;0.65;;;;;;;31.88;23.61;99642.53;1996155;78;20216;-76
2021/06/14 12:06:40;;;;;;;1.48;0.80;;;;;;;31.99;23.04;99645.13;1996196;81;20240;-76
2021/06/14 12:09:42;;;;;;;1.38;0.63;;;;;;;31.92;22.69;99642.13;1996583;81;21212;-76
2021/06/14 12:12:46;;;;;;;2.40;0.80;;;;;;;31.98;22.41;99644.28;1995389;81;20309;-75
2021/06/14 12:15:51;;;;;;;4.79;0.70;;;;;;;32.02;23.79;99650.22;1994899;78;23071;-77
2021/06/14 12:19:00;;;;;;;2.65;0.64;;;;;;;32.14;21.99;99641.06;1996204;81;20163;-75
2021/06/14 12:22:06;;;;;;;2.17;0.70;;;;;;;32.15;22.29;99632.00;1995681;81;20404;-75
2021/06/14 12:25:12;;;;;;;0.77;0.60;;;;;;;32.23;22.11;99634.00;1995947;81;20634;-75
2021/06/14 12:28:17;;;;;;;3.28;0.60;;;;;;;32.16;22.12;99634.56;1996285;81;20731;-75
2021/06/14 12:31:20;;;;;;;1.25;0.68;;;;;;;32.27;21.92;99630.06;1995466;81;20531;-74
2021/06/14 12:34:27;;;;;;;1.59;0.56;;;;;;;32.20;22.20;99636.97;1996176;81;20665;-75
2021/06/14 12:37:30;;;;;;;3.21;0.70;;;;;;;31.85;20.55;99624.84;1995039;81;20224;-76
2021/06/14 12:40:32;;;;;;;1.33;0.66;;;;;;;31.84;22.48;99633.91;1995961;81;20253;-76
2021/06/14 12:43:35;;;;;;;6.99;1.15;;;;;;;32.04;22.74;99629.44;1996195;81;20194;-75
2021/06/14 12:46:38;;;;;;;1.74;1.21;;;;;;;32.08;21.80;99620.09;1994206;78;20693;-75
2021/06/14 12:49:41;;;;;;;1.76;0.70;;;;;;;31.96;22.42;99622.06;1996238;81;20154;-77
2021/06/14 12:52:43;;;;;;;1.29;0.70;;;;;;;31.94;22.52;99615.09;1995849;81;20196;-74
2021/06/14 12:55:48;;;;;;;3.92;1.15;;;;;;;31.90;21.82;99609.16;1996926;81;20190;-75
2021/06/14 12:58:51;;;;;;;2.14;0.75;;;;;;;31.85;21.47;99614.97;1996894;81;20186;-75
2021/06/14 13:01:54;;;;;;;1.45;0.70;;;;;;;31.76;22.17;99610.38;1994992;78;20182;-74
2021/06/14 13:04:56;;;;;;;6.22;0.90;;;;;;;31.66;22.02;99598.75;1995869;81;20194;-76
2021/06/14 13:08:01;;;;;;;3.09;0.70;;;;;;;31.99;23.05;99599.44;1996006;81;20280;-76
2021/06/14 13:11:04;;;;;;;2.10;0.90;;;;;;;32.20;23.27;99596.66;1995871;81;20823;-74
2021/06/14 13:14:07;;;;;;;1.42;0.71;;;;;;;32.15;22.41;99589.03;1996006;81;20194;-75
2021/06/14 13:17:14;;;;;;;2.09;0.70;;;;;;;32.12;21.60;99591.97;1995078;78;20921;-75
2021/06/14 13:20:19;;;;;;;2.63;0.71;;;;;;;32.31;22.89;99591.16;1996084;81;20210;-75
2021/06/14 13:23:24;;;;;;;1.23;0.70;;;;;;;32.14;22.60;99576.56;1996218;81;20170;-75
2021/06/14 13:26:45;;;;;;;4.86;0.70;;;;;;;31.86;24.17;99565.63;1995795;81;20174;-75
2021/06/14 13:29:55;;;;;;;1.04;0.60;;;;;;;32.17;22.87;99578.97;1996479;81;20213;-76
2021/06/14 13:33:07;;;;;;;5.36;0.60;;;;;;;32.20;21.98;99572.47;1994677;79;24170;-75
2021/06/14 13:36:12;;;;;;;1.99;0.66;;;;;;;32.14;22.58;99568.50;1996472;81;20214;-76
2021/06/14 13:39:23;;;;;;;4.25;0.70;;;;;;;32.38;23.25;99571.66;1995953;81;20290;-75
2021/06/14 13:42:26;;;;;;;2.96;0.68;;;;;;;32.62;22.92;99567.69;1995736;81;20182;-75
2021/06/14 13:45:34;;;;;;;2.74;0.60;;;;;;;32.66;23.00;99564.56;1994470;78;20242;-75
2021/06/14 13:48:47;;;;;;;1.85;0.80;;;;;;;32.70;23.34;99562.44;1995753;81;20218;-75
2021/06/14 13:51:59;;;;;;;1.84;0.70;;;;;;;32.86;23.88;99559.19;1995637;81;20158;-75
2021/06/14 13:55:03;;;;;;;1.48;0.70;;;;;;;32.93;23.41;99561.16;1996367;81;20186;-75
2021/06/14 13:58:06;;;;;;;4.78;0.75;;;;;;;32.89;22.60;99556.22;1995663;81;20178;-80
2021/06/14 14:01:12;;;;;;;3.01;0.90;;;;;;;32.95;23.37;99552.94;1994582;79;26929;-76
2021/06/14 14:04:18;;;;;;;3.22;0.90;;;;;;;32.89;23.28;99553.53;1995755;81;20227;-76
2021/06/14 14:07:21;;;;;;;3.61;1.24;;;;;;;32.86;23.24;99548.44;1995679;81;20204;-76
2021/06/14 14:10:25;;;;;;;3.19;1.01;;;;;;;32.65;22.81;99544.03;1995797;81;20186;-76
2021/06/14 14:13:29;;;;;;;4.45;0.90;;;;;;;32.55;23.60;99542.38;1995083;81;21176;-75
2021/06/14 14:16:33;;;;;;;2.89;1.02;;;;;;;32.69;24.34;99536.56;1995838;78;21940;-75
2021/06/14 14:19:38;;;;;;;2.36;1.20;;;;;;;32.77;24.25;99536.66;1995524;81;20299;-76
2021/06/14 14:22:43;;;;;;;;;;;;;;;32.75;24.62;99528.75;1995093;81;20174;-76
2021/06/14 14:25:46;;;;;;;2.66;0.99;;;;;;;32.59;24.50;99527.63;1996689;81;20066;-79
2021/06/14 14:28:49;;;;;;;3.71;0.84;;;;;;;32.55;25.24;99529.78;1995606;81;20195;-76
2021/06/14 14:31:54;;;;;;;1.75;0.99;;;;;;;32.53;25.92;99536.28;1995163;79;21036;-76
2021/06/14 14:35:02;;;;;;;1.95;0.90;;;;;;;32.46;25.36;99523.38;1995613;81;20666;-77
2021/06/14 14:38:07;;;;;;;1.66;0.79;;;;;;;32.11;25.54;99512.34;1995924;81;20192;-76
2021/06/14 14:41:25;;;;;;;2.36;0.95;;;;;;;32.10;25.46;99521.38;1995888;81;20352;-75
2021/06/14 14:44:28;;;;;;;2.78;1.02;;;;;;;31.82;25.82;99515.00;1996209;81;20183;-75